Latest Weather Observations for Low Head

IDT60801

Issued at 4:51 pm EDT Tuesday 19 January 2021 (issued every 10 minutes, with the page automatically refreshed every 10 minutes)

About weather observations | Map of weather stations | Latest weather observations for TAS | Other Formats
Station Details ID: 091293 Name: LOW HEAD Lat: -41.05 Lon: 146.79 Height: 3.0 m
Data from the previous 72 hours. | See also: Recent months at Low Head
Date/Time
EDT
Temp
°C
App
Temp
°C
Dew
Point
°C
Rel
Hum
%
Delta-T
°C
Wind Press
QNH
hPa
Press
MSL
hPa
Rain since
9am
mm
Dir  Spd
km/h
Gust
km/h
Spd
kts
Gust
kts
19/04:30pm 19.7 14.2 9.3 51 5.5 NW 28 30 15 16 1020.1 1020.1 0.0
19/04:00pm 19.2 13.4 6.3 43 6.4 NW 26 32 14 17 1020.2 1020.2 0.0
19/03:30pm 19.0 12.6 7.1 46 6.0 WNW 30 35 16 19 1020.1 1020.1 0.0
19/03:00pm 19.2 13.3 7.6 47 5.9 WNW 28 32 15 17 1020.0 1020.0 0.0
19/02:30pm 20.0 16.1 5.3 38 7.2 S 15 22 8 12 1020.3 1020.3 0.0
19/02:00pm 18.2 12.1 6.4 46 5.8 WNW 28 35 15 19 1020.3 1020.3 0.0
19/01:30pm 17.7 12.1 5.3 44 6.0 W 24 35 13 19 1020.5 1020.5 0.0
19/01:00pm 17.5 11.9 5.4 45 5.8 W 24 28 13 15 1020.8 1020.8 0.0
19/12:30pm 17.0 12.3 6.2 49 5.3 W 20 28 11 15 1021.1 1021.1 0.0
19/12:00pm 17.2 12.2 4.5 43 6.0 W 20 28 11 15 1020.9 1020.9 0.0
19/11:30am 17.2 12.6 3.8 41 6.2 SSW 17 33 9 18 1021.1 1021.1 0.0
19/11:00am 16.0 13.2 3.4 43 5.7 SW 7 11 4 6 1021.3 1021.3 0.0
19/10:30am 15.2 10.9 1.0 38 6.1 SSE 13 17 7 9 1021.3 1021.3 0.0
19/10:00am 14.5 11.1 1.8 42 5.5 NNW 9 13 5 7 1021.1 1021.1 0.0
19/09:30am 14.1 11.2 2.4 45 5.2 W 7 13 4 7 1021.2 1021.2 0.0
19/09:00am 13.2 9.3 1.2 44 5.1 SW 11 17 6 9 1020.7 1020.7 0.0
19/08:30am 12.6 8.1 1.9 48 4.6 WSW 15 19 8 10 1020.4 1020.4 0.0
19/08:00am 12.3 8.3 2.7 52 4.2 SW 13 17 7 9 1019.8 1019.8 0.0
19/07:30am 11.6 8.1 3.4 57 3.6 SW 11 13 6 7 1019.3 1019.3 0.0
19/07:00am 10.9 7.7 3.2 59 3.3 S 9 13 5 7 1018.7 1018.7 0.0
19/06:30am 11.1 7.2 1.4 51 4.1 SSW 11 15 6 8 1018.0 1018.0 0.0
19/06:00am 11.0 5.9 1.0 50 4.1 S 17 19 9 10 1017.6 1017.6 0.0
19/05:30am 11.2 7.3 3.5 59 3.4 SSW 13 15 7 8 1017.1 1017.1 0.0
19/05:00am 10.6 6.5 4.1 64 2.9 S 15 17 8 9 1016.6 1016.6 0.0
19/04:30am 10.7 5.5 3.3 60 3.2 S 20 26 11 14 1016.1 1016.1 0.0
19/04:00am 11.0 5.7 2.8 57 3.5 S 20 24 11 13 1015.8 1015.8 0.0
19/03:30am 11.2 6.1 2.8 56 3.6 SSW 19 22 10 12 1015.5 1015.5 0.0
19/03:00am 11.7 6.9 2.5 53 4.0 SSW 17 20 9 11 1015.2 1015.2 0.0
19/02:30am 11.0 7.4 0.7 49 4.2 ESE 9 13 5 7 1014.8 1014.8 0.0
19/02:00am 11.1 7.1 0.8 49 4.3 SSE 11 13 6 7 1014.4 1014.4 0.0
19/01:30am 11.7 8.3 1.9 51 4.2 SE 9 11 5 6 1013.9 1013.9 0.0
19/01:00am 12.4 8.8 0.5 44 5.0 SE 9 11 5 6 1013.4 1013.4 0.0
19/12:30am 13.4 9.5 3.5 51 4.4 SSW 13 17 7 9 1013.0 1013.0 0.0
19/12:00am 14.0 8.7 3.2 48 4.8 SW 20 28 11 15 1012.3 1012.3 0.0
 
Date/Time
EDT
Temp
°C
App
Temp
°C
Dew
Point
°C
Rel
Hum
%
Delta-T
°C
Wind Press
QNH
hPa
Press
MSL
hPa
Rain since
9am
mm
Dir  Spd
km/h
Gust
km/h
Spd
kts
Gust
kts
18/11:30pm 14.4 8.0 5.2 54 4.3 WSW 28 35 15 19 1011.9 1011.9 0.0
18/11:00pm 14.7 6.1 4.7 51 4.7 WSW 39 46 21 25 1010.9 1010.9 0.0
18/10:30pm 15.0 7.5 6.3 56 4.2 WSW 35 46 19 25 1010.4 1010.4 0.0
18/10:00pm 15.5 7.7 4.8 49 5.0 WSW 35 41 19 22 1009.6 1009.6 0.0
18/09:30pm 15.9 9.0 6.3 53 4.7 W 32 37 17 20 1009.6 1009.6 0.0
18/09:00pm 15.9 7.8 6.9 55 4.4 W 39 44 21 24 1008.5 1008.5 0.0
18/08:30pm 16.5 7.9 8.2 58 4.2 WSW 43 54 23 29 1008.2 1008.2 0.0
18/08:00pm 17.0 8.5 10.6 66 3.4 W 46 54 25 29 1007.5 1007.5 0.0
18/07:30pm 17.3 8.0 10.7 65 3.5 W 50 61 27 33 1007.3 1007.3 0.0
18/07:00pm 18.0 9.4 10.4 61 4.1 W 46 59 25 32 1006.9 1006.9 0.0
18/06:30pm 18.3 10.4 11.4 64 3.8 W 44 57 24 31 1006.7 1006.7 0.0
18/06:00pm 18.3 9.5 12.1 67 3.4 W 50 57 27 31 1006.7 1006.7 0.0
18/05:30pm 18.1 8.9 12.3 69 3.2 W 52 61 28 33 1006.6 1006.6 0.0
18/05:00pm 18.6 10.7 12.8 69 3.3 W 46 57 25 31 1006.7 1006.7 0.0
18/04:50pm 18.2 10.6 11.7 66 3.6 W 43 63 23 34 1006.8 1006.8 0.0
18/04:30pm 18.8 11.1 13.2 70 3.2 W 46 57 25 31 1006.8 1006.8 0.0
18/04:00pm 18.8 10.9 12.8 68 3.4 W 46 57 25 31 1006.7 1006.7 0.0
18/03:30pm 18.8 11.8 13.6 72 3.0 W 43 56 23 30 1007.0 1007.0 0.0
18/03:00pm 18.8 10.9 12.8 68 3.4 W 46 57 25 31 1007.2 1007.2 0.0
18/02:30pm 19.0 11.3 13.4 70 3.2 WNW 46 54 25 29 1007.6 1007.6 0.0
18/02:00pm 18.4 9.0 12.6 69 3.2 W 54 63 29 34 1007.5 1007.5 0.0
18/01:30pm 18.4 9.9 13.1 71 3.0 WNW 50 61 27 33 1007.7 1007.7 0.0
18/01:00pm 18.2 9.7 13.3 73 2.8 WNW 50 63 27 34 1007.6 1007.6 0.0
18/12:30pm 18.3 9.9 13.6 74 2.7 WNW 50 59 27 32 1007.8 1007.8 0.0
18/12:00pm 17.8 10.5 13.3 75 2.5 WNW 44 57 24 31 1008.3 1008.3 0.0
18/11:30am 17.6 9.4 12.9 74 2.6 WNW 48 57 26 31 1008.7 1008.7 0.0
18/11:00am 17.3 7.5 12.6 74 2.6 W 56 65 30 35 1008.6 1008.6 0.0
18/10:30am 17.0 7.5 12.3 74 2.6 W 54 63 29 34 1008.5 1008.5 0.0
18/10:00am 16.6 8.6 12.4 76 2.3 W 46 57 25 31 1008.9 1008.9 0.0
18/09:30am 16.2 6.9 12.0 76 2.3 W 52 61 28 33 1008.9 1008.9 0.0
18/09:00am 16.4 7.6 13.3 82 1.7 W 52 59 28 32 1009.1 1009.1 0.0
18/08:30am 16.1 7.7 13.6 85 1.4 W 50 57 27 31 1009.5 1009.5 0.0
18/08:00am 15.7 7.7 13.4 86 1.3 W 48 59 26 32 1009.4 1009.4 0.0
18/07:30am 15.5 7.0 13.3 87 1.2 W 50 57 27 31 1009.3 1009.3 0.0
18/07:00am 15.3 7.6 13.2 87 1.2 W 46 54 25 29 1009.3 1009.3 0.0
18/06:30am 15.2 7.8 12.9 86 1.3 W 44 50 24 27 1009.4 1009.4 0.0
18/06:00am 15.2 7.9 12.9 86 1.3 W 43 48 23 26 1009.3 1009.3 0.0
18/05:30am 15.3 8.5 13.0 86 1.3 W 41 46 22 25 1009.1 1009.1 0.0
18/05:00am 15.4 8.2 13.1 86 1.3 W 43 48 23 26 1009.3 1009.3 0.0
18/04:30am 15.4 8.2 13.1 86 1.3 W 43 50 23 27 1009.3 1009.3 0.0
18/04:00am 15.4 8.2 13.1 86 1.3 W 43 52 23 28 1009.2 1009.2 0.0
18/03:30am 15.5 7.7 13.0 85 1.4 W 46 56 25 30 1009.1 1009.1 0.0
18/03:00am 15.5 7.0 13.2 86 1.3 W 50 59 27 32 1009.1 1009.1 0.0
18/02:30am 15.4 6.8 12.9 85 1.4 W 50 59 27 32 1009.0 1009.0 0.0
18/02:00am 15.8 7.0 13.3 85 1.4 W 52 59 28 32 1009.1 1009.1 0.0
18/01:30am 15.6 7.9 13.3 86 1.3 W 46 54 25 29 1009.4 1009.4 0.0
18/01:00am 15.6 7.2 13.4 87 1.2 W 50 57 27 31 1009.5 1009.5 0.0
18/12:30am 15.7 6.9 13.5 87 1.2 W 52 61 28 33 1009.3 1009.3 0.0
18/12:00am 15.8 7.5 13.8 88 1.1 W 50 57 27 31 1009.6 1009.6 0.0
 
Date/Time
EDT
Temp
°C
App
Temp
°C
Dew
Point
°C
Rel
Hum
%
Delta-T
°C
Wind Press
QNH
hPa
Press
MSL
hPa
Rain since
9am
mm
Dir  Spd
km/h
Gust
km/h
Spd
kts
Gust
kts
17/11:30pm 15.8 7.4 13.6 87 1.2 WNW 50 57 27 31 1009.9 1009.9 0.0
17/11:00pm 15.6 7.9 13.4 87 1.2 WNW 46 54 25 29 1010.4 1010.4 0.0
17/10:30pm 15.8 8.3 13.8 88 1.1 WNW 46 57 25 31 1010.5 1010.5 0.0
17/10:00pm 15.8 7.4 13.5 86 1.3 W 50 57 27 31 1010.7 1010.7 0.0
17/09:30pm 16.0 8.1 13.8 87 1.2 WNW 48 57 26 31 1010.7 1010.7 0.0
17/09:00pm 15.7 7.3 13.5 87 1.2 W 50 57 27 31 1010.6 1010.6 0.0
17/08:30pm 15.8 7.4 13.6 87 1.2 WNW 50 61 27 33 1010.4 1010.4 0.0
17/08:00pm 15.9 6.8 13.6 86 1.3 W 54 63 29 34 1010.2 1010.2 0.0
17/07:30pm 15.9 7.0 13.2 84 1.5 WNW 52 63 28 34 1010.2 1010.2 0.0
17/07:00pm 16.0 7.0 12.9 82 1.7 WNW 52 59 28 32 1010.4 1010.4 0.0
17/06:30pm 16.0 7.3 12.7 81 1.8 W 50 61 27 33 1010.5 1010.5 0.0
17/06:00pm 16.2 7.5 12.6 79 2.0 W 50 59 27 32 1010.7 1010.7 0.0
17/05:30pm 16.3 7.5 12.1 76 2.3 W 50 59 27 32 1011.1 1011.1 0.0
17/05:00pm 16.1 6.8 11.7 75 2.4 W 52 59 28 32 1011.2 1011.2 0.0
17/04:30pm 16.1 7.0 11.3 73 2.6 W 50 59 27 32 1011.3 1011.3 0.0
17/04:00pm 16.4 6.9 11.3 72 2.7 W 52 61 28 33 1011.7 1011.7 0.0
17/03:30pm 16.2 6.9 10.7 70 2.9 W 50 57 27 31 1011.7 1011.7 0.0
17/03:00pm 16.7 8.2 10.5 67 3.3 W 46 56 25 30 1011.7 1011.7 0.0
17/02:30pm 16.4 7.5 10.5 68 3.1 W 48 56 26 30 1011.8 1011.8 0.0
17/02:00pm 17.2 9.1 10.1 63 3.8 W 43 52 23 28 1012.0 1012.0 0.0
17/01:30pm 17.3 9.7 10.4 64 3.7 W 41 50 22 27 1012.0 1012.0 0.0
17/01:00pm 17.0 8.9 9.9 63 3.7 W 43 50 23 27 1012.2 1012.2 0.0
17/12:30pm 16.3 9.4 9.0 62 3.8 WNW 35 43 19 23 1012.6 1012.6 0.0
17/12:00pm 16.4 8.4 9.1 62 3.8 W 41 50 22 27 1012.9 1012.9 0.0
17/11:30am 15.9 7.5 8.9 63 3.6 W 43 50 23 27 1012.7 1012.7 0.0
17/11:00am 15.4 5.8 9.5 68 3.0 W 50 61 27 33 1012.4 1012.4 0.0
17/10:30am 14.5 5.0 8.2 66 3.2 W 48 57 26 31 1012.2 1012.2 0.0
17/10:00am 14.0 4.8 8.0 67 3.0 W 46 52 25 28 1012.5 1012.5 0.0
17/09:30am 13.5 4.8 7.5 67 2.9 W 43 50 23 27 1012.6 1012.6 0.0
17/09:00am 13.9 5.3 8.3 69 2.8 W 43 52 23 28 1012.7 1012.7 0.0
17/08:30am 13.9 4.6 7.7 66 3.1 W 46 56 25 30 1012.4 1012.4 0.0
17/08:00am 13.3 5.1 6.4 63 3.3 WSW 39 50 21 27 1012.2 1012.2 0.0
17/07:30am 13.1 4.3 7.1 67 2.9 W 43 52 23 28 1012.1 1012.1 0.0
17/07:00am 13.5 5.3 8.1 70 2.7 W 41 48 22 26 1011.8 1011.8 0.0
17/06:30am 13.3 5.1 8.0 70 2.6 W 41 46 22 25 1011.6 1011.6 0.0
17/06:00am 13.2 4.2 7.2 67 2.9 W 44 54 24 29 1011.2 1011.2 0.0
17/05:30am 13.2 3.8 7.0 66 3.0 W 46 54 25 29 1010.8 1010.8 0.0
17/05:00am 13.4 4.7 8.3 71 2.5 W 44 52 24 28 1010.5 1010.5 0.0
17/04:30am 13.2 4.3 7.0 66 3.0 W 43 50 23 27 1010.3 1010.3 0.0
17/04:00am 13.6 5.3 7.8 68 2.9 W 41 46 22 25 1010.4 1010.4 0.0
17/03:30am 13.5 5.8 7.1 65 3.1 WSW 37 44 20 24 1010.2 1010.2 0.0
17/03:00am 13.0 6.0 6.8 66 3.0 WSW 33 41 18 22 1010.1 1010.1 0.0
17/02:30am 13.0 5.8 5.9 62 3.3 WSW 33 39 18 21 1010.1 1010.1 0.0
17/02:00am 13.1 6.9 6.0 62 3.4 WSW 28 32 15 17 1010.1 1010.1 0.0
17/01:30am 13.3 8.0 6.9 65 3.1 WSW 24 33 13 18 1009.9 1009.9 0.0
17/01:00am 12.9 5.6 4.6 57 3.8 WSW 32 37 17 20 1009.7 1009.7 0.0
17/12:30am 13.1 6.6 6.7 65 3.1 WSW 30 35 16 19 1009.6 1009.6 0.0
17/12:00am 13.4 6.5 6.3 62 3.4 WSW 32 37 17 20 1009.5 1009.5 0.0
 
Date/Time
EDT
Temp
°C
App
Temp
°C
Dew
Point
°C
Rel
Hum
%
Delta-T
°C
Wind Press
QNH
hPa
Press
MSL
hPa
Rain since
9am
mm
Dir  Spd
km/h
Gust
km/h
Spd
kts
Gust
kts
16/11:30pm 14.1 5.7 7.4 64 3.3 WSW 41 46 22 25 1009.0 1009.0 0.0
16/11:00pm 13.9 6.2 7.2 64 3.3 WSW 37 43 20 23 1008.8 1008.8 0.0
16/10:30pm 14.2 5.5 7.7 65 3.2 WSW 43 54 23 29 1008.3 1008.3 0.0
16/10:00pm 14.6 6.3 7.9 64 3.3 WSW 41 46 22 25 1007.7 1007.7 0.0
16/09:30pm 14.7 6.6 6.8 59 3.8 WSW 39 43 21 23 1007.8 1007.8 0.0
16/09:00pm 15.1 4.8 6.7 57 4.1 WSW 50 61 27 33 1006.7 1006.7 0.0
16/08:30pm 15.4 4.5 7.4 59 4.0 WSW 54 61 29 33 1006.3 1006.3 0.0
16/08:00pm 16.0 5.5 7.5 57 4.3 WSW 52 63 28 34 1005.6 1005.6 0.0
16/07:30pm 16.3 5.7 6.7 53 4.7 WSW 52 59 28 32 1005.1 1005.1 0.0
16/07:00pm 16.7 6.0 7.9 56 4.5 WSW 54 63 29 34 1004.6 1004.6 0.0
16/06:30pm 17.1 7.0 8.8 58 4.3 WSW 52 65 28 35 1004.2 1004.2 0.0
16/06:00pm 16.9 7.1 10.1 64 3.6 W 52 59 28 32 1003.7 1003.7 0.0
16/05:30pm 17.4 7.6 10.1 62 3.9 W 52 61 28 33 1003.5 1003.5 0.0
16/05:00pm 17.5 8.2 10.4 63 3.8 W 50 59 27 32 1003.3 1003.3 0.0

Other formats

Comma delimited format used in spreadsheet applications
http://www.bom.gov.au/fwo/IDT60801/IDT60801.95964.axf

JavaScript Object Notation format (JSON) in row-major order
http://www.bom.gov.au/fwo/IDT60801/IDT60801.95964.json

Data quality

Most of these data are generated automatically and are frequently updated. Quality checks on data are not normally performed. It is possible for incorrect values to appear. Refer to information at About Latest Weather Observations and please check the disclaimer before using these data.